Time;durP1;ratioP1;P1;durP2;ratioP2;P2;SDS_P1;SDS_P2;PMS_P1;PMS_P2;Temp;Humidity;BMP_temperature;BMP_pressure;BME280_temperature;BME280_humidity;BME280_pressure;Samples;Min_cycle;Max_cycle;Signal;HPM_P1;HPM_P2
2022/04/20 00:00:36;;;;;;;6.20;3.33;;;6.20;99.90;;;;;;5072905;28;20672;-74
2022/04/20 00:03:05;;;;;;;5.07;3.50;;;6.10;99.90;;;;;;5072855;28;20195;-74
2022/04/20 00:05:33;;;;;;;5.07;3.77;;;6.20;99.90;;;;;;5072675;28;20405;-73
2022/04/20 00:08:00;;;;;;;6.07;3.63;;;5.90;99.90;;;;;;5070205;28;20214;-74
2022/04/20 00:10:28;;;;;;;6.37;4.33;;;5.60;99.90;;;;;;5071889;28;20202;-74
2022/04/20 00:12:55;;;;;;;4.50;3.50;;;5.40;99.90;;;;;;5073111;28;20256;-73
2022/04/20 00:15:22;;;;;;;7.97;4.00;;;5.20;99.90;;;;;;5056814;28;20231;-74
2022/04/20 00:17:50;;;;;;;4.40;3.60;;;5.20;99.90;;;;;;5067221;28;20224;-74
2022/04/20 00:20:18;;;;;;;4.70;3.50;;;5.10;99.90;;;;;;5072038;28;20499;-73
2022/04/20 00:22:45;;;;;;;6.27;3.97;;;5.10;99.90;;;;;;5070308;28;20203;-74
2022/04/20 00:25:12;;;;;;;8.97;5.17;;;5.00;99.90;;;;;;5072803;28;20649;-73
2022/04/20 00:27:39;;;;;;;5.60;3.90;;;5.20;99.90;;;;;;5071779;28;20253;-74
2022/04/20 00:30:09;;;;;;;5.60;3.57;;;5.20;99.90;;;;;;5056386;28;20269;-74
2022/04/20 00:32:37;;;;;;;5.50;3.47;;;5.30;99.90;;;;;;5051793;28;20293;-74
2022/04/20 00:35:04;;;;;;;5.07;3.40;;;5.10;99.90;;;;;;5069119;28;20202;-74
2022/04/20 00:37:34;;;;;;;4.97;3.60;;;5.00;99.90;;;;;;5070363;28;20202;-73
2022/04/20 00:40:01;;;;;;;4.93;3.40;;;5.00;99.90;;;;;;5072394;28;20681;-73
2022/04/20 00:42:29;;;;;;;3.67;3.00;;;4.90;99.90;;;;;;5072907;28;20260;-73
2022/04/20 00:44:57;;;;;;;4.57;3.30;;;4.90;99.90;;;;;;5072600;28;20537;-73
2022/04/20 00:47:25;;;;;;;4.03;3.20;;;4.90;99.90;;;;;;5055753;28;20225;-73
2022/04/20 00:49:52;;;;;;;5.17;3.63;;;4.90;99.90;;;;;;5068572;28;20198;-74
2022/04/20 00:52:19;;;;;;;4.60;3.23;;;4.90;99.90;;;;;;5071825;28;20248;-73
2022/04/20 00:54:48;;;;;;;5.17;3.27;;;4.70;99.90;;;;;;5072741;28;20616;-73
2022/04/20 00:57:15;;;;;;;6.60;3.10;;;4.90;99.90;;;;;;5071215;28;20477;-74
2022/04/20 00:59:44;;;;;;;4.40;2.90;;;5.00;99.90;;;;;;5072106;28;20285;-74
2022/04/20 01:02:11;;;;;;;6.57;3.13;;;4.60;99.90;;;;;;5071569;28;20202;-73
2022/04/20 01:04:39;;;;;;;6.53;2.97;;;4.50;99.90;;;;;;5072381;28;20256;-75
2022/04/20 01:07:13;;;;;;;4.20;2.90;;;4.40;99.90;;;;;;5070472;28;20288;-73
2022/04/20 01:09:41;;;;;;;3.73;2.80;;;4.50;99.90;;;;;;5070989;28;20194;-74
2022/04/20 01:12:10;;;;;;;4.43;3.20;;;4.50;99.90;;;;;;5072140;28;20198;-74
2022/04/20 01:14:37;;;;;;;3.87;2.50;;;4.40;99.90;;;;;;5071155;28;20673;-73
2022/04/20 01:17:05;;;;;;;3.70;2.70;;;4.40;99.90;;;;;;5070277;28;20202;-74
2022/04/20 01:19:33;;;;;;;4.57;2.80;;;4.60;99.90;;;;;;5071052;28;20262;-73
2022/04/20 01:22:02;;;;;;;4.63;3.43;;;4.60;99.90;;;;;;5070685;28;20237;-73
2022/04/20 01:24:29;;;;;;;5.67;2.60;;;4.40;99.90;;;;;;5051528;28;20731;-73
2022/04/20 01:26:57;;;;;;;3.47;2.70;;;4.20;99.90;;;;;;5060436;28;20200;-74
2022/04/20 01:29:24;;;;;;;4.23;2.97;;;4.30;99.90;;;;;;5070758;28;20198;-73
2022/04/20 01:31:51;;;;;;;5.50;3.03;;;4.40;99.90;;;;;;5070907;28;20234;-73
2022/04/20 01:34:18;;;;;;;3.63;3.00;;;4.50;99.90;;;;;;5071977;28;20248;-73
2022/04/20 01:36:45;;;;;;;3.77;2.67;;;4.50;99.90;;;;;;5070934;28;20198;-73
2022/04/20 01:39:13;;;;;;;3.07;2.60;;;4.60;99.90;;;;;;5069139;28;20209;-74
2022/04/20 01:41:41;;;;;;;3.70;2.93;;;4.60;99.90;;;;;;5071643;28;20594;-73
2022/04/20 01:44:08;;;;;;;6.97;2.87;;;4.60;99.90;;;;;;5071402;28;20199;-73
2022/04/20 01:46:35;;;;;;;4.47;2.80;;;4.60;99.90;;;;;;5070467;28;20203;-73
2022/04/20 01:49:03;;;;;;;3.57;2.87;;;4.70;99.90;;;;;;5071875;28;20213;-73
2022/04/20 01:51:50;;;;;;;4.93;3.07;;;4.80;99.90;;;;;;5071073;28;20221;-71
2022/04/20 01:54:19;;;;;;;4.17;2.40;;;4.80;99.90;;;;;;5072132;28;20212;-71
2022/04/20 01:56:48;;;;;;;3.80;3.00;;;4.80;99.90;;;;;;5070771;28;20202;-71
2022/04/20 01:59:16;;;;;;;3.50;2.53;;;4.70;99.90;;;;;;5070895;28;20602;-71
2022/04/20 02:04:28;;;;;;;3.27;2.57;;;4.90;99.90;;;;;;5071627;28;20255;-71
2022/04/20 02:06:56;;;;;;;4.23;2.90;;;4.90;99.90;;;;;;5072052;28;20603;-71
2022/04/20 02:09:25;;;;;;;3.07;2.53;;;4.90;99.90;;;;;;5070307;28;20856;-71
2022/04/20 02:11:52;;;;;;;5.00;2.70;;;4.70;99.90;;;;;;5062192;28;20237;-71
2022/04/20 02:14:19;;;;;;;3.63;2.77;;;4.50;99.90;;;;;;5053573;28;20286;-71
2022/04/20 02:16:46;;;;;;;5.77;2.90;;;4.40;99.90;;;;;;5056079;28;20710;-70
2022/04/20 02:19:13;;;;;;;4.27;2.90;;;4.40;99.90;;;;;;5064173;28;20198;-71
2022/04/20 02:21:40;;;;;;;3.43;2.60;;;4.40;99.90;;;;;;5051280;28;20757;-71
2022/04/20 02:24:08;;;;;;;5.90;3.17;;;4.30;99.90;;;;;;5058597;28;20202;-71
2022/04/20 02:26:36;;;;;;;4.53;3.10;;;4.40;99.90;;;;;;5069923;28;20263;-71
2022/04/20 02:29:03;;;;;;;4.47;3.20;;;4.40;99.90;;;;;;5071012;28;20190;-71
2022/04/20 02:31:30;;;;;;;6.10;2.83;;;4.50;99.90;;;;;;5069314;28;20289;-72
2022/04/20 02:33:57;;;;;;;5.07;3.17;;;4.40;99.90;;;;;;5070357;28;20210;-71
2022/04/20 02:36:24;;;;;;;5.17;3.40;;;4.40;99.90;;;;;;5069277;28;20284;-71
2022/04/20 02:38:52;;;;;;;3.80;2.73;;;4.40;99.90;;;;;;5069624;28;20725;-71
2022/04/20 02:41:19;;;;;;;7.20;3.20;;;4.30;99.90;;;;;;5070920;28;20250;-71
2022/04/20 02:43:49;;;;;;;4.77;3.00;;;4.20;99.90;;;;;;5065323;28;20202;-72
2022/04/20 02:46:16;;;;;;;4.80;2.90;;;4.30;99.90;;;;;;5049728;28;20227;-72
2022/04/20 02:48:43;;;;;;;5.70;3.07;;;4.40;99.90;;;;;;5061751;28;20211;-71
2022/04/20 02:51:10;;;;;;;5.60;3.30;;;4.50;99.90;;;;;;5070311;28;20198;-72
2022/04/20 02:53:37;;;;;;;4.70;2.90;;;4.50;99.90;;;;;;5074016;28;20206;-72
2022/04/20 02:56:04;;;;;;;4.30;2.90;;;4.40;99.90;;;;;;5074055;28;20725;-71
2022/04/20 02:58:31;;;;;;;4.90;2.70;;;4.30;99.90;;;;;;5073097;28;20487;-72
2022/04/20 03:01:00;;;;;;;5.07;2.83;;;4.10;99.90;;;;;;5062006;28;20280;-71
2022/04/20 03:03:27;;;;;;;3.43;2.87;;;4.10;99.90;;;;;;5063230;28;20206;-72
2022/04/20 03:05:54;;;;;;;3.33;2.70;;;4.20;99.90;;;;;;5071805;28;20226;-72
2022/04/20 03:08:23;;;;;;;4.30;3.10;;;4.30;99.90;;;;;;5074357;28;20287;-71
2022/04/20 03:10:51;;;;;;;5.90;3.10;;;4.20;99.90;;;;;;5072591;28;20225;-72
2022/04/20 03:13:19;;;;;;;6.10;3.03;;;4.20;99.90;;;;;;5073444;28;20462;-72
2022/04/20 03:15:46;;;;;;;4.27;2.97;;;4.10;99.90;;;;;;5068883;28;20195;-71
2022/04/20 03:18:15;;;;;;;4.53;3.40;;;4.10;99.90;;;;;;5055752;28;20210;-71
2022/04/20 03:20:42;;;;;;;6.07;3.10;;;3.90;99.90;;;;;;5054963;28;20516;-72
2022/04/20 03:23:12;;;;;;;8.97;5.27;;;3.80;99.90;;;;;;5052242;28;20195;-72
2022/04/20 03:25:41;;;;;;;11.77;5.83;;;3.90;99.90;;;;;;5066287;28;20210;-72
2022/04/20 03:28:08;;;;;;;8.40;4.90;;;4.20;99.90;;;;;;5074059;28;20206;-72
2022/04/20 03:30:38;;;;;;;6.37;3.30;;;4.30;99.90;;;;;;5071987;28;20198;-72
2022/04/20 03:33:08;;;;;;;7.37;3.07;;;4.40;99.90;;;;;;5072350;28;20203;-72
2022/04/20 03:35:38;;;;;;;5.13;3.17;;;4.30;99.90;;;;;;5073859;28;20213;-72
2022/04/20 03:38:06;;;;;;;5.67;3.13;;;4.20;99.90;;;;;;5071528;28;20202;-72
2022/04/20 03:40:33;;;;;;;9.13;3.00;;;3.90;99.90;;;;;;5073279;28;20607;-72
2022/04/20 03:43:00;;;;;;;5.60;3.07;;;3.70;99.90;;;;;;5073462;28;20260;-72
2022/04/20 03:45:27;;;;;;;5.20;3.20;;;3.70;99.90;;;;;;5073074;28;20543;-72
2022/04/20 03:47:54;;;;;;;4.03;2.97;;;3.50;99.90;;;;;;5072519;28;20206;-72
2022/04/20 03:50:21;;;;;;;4.60;2.97;;;3.60;99.90;;;;;;5073136;28;20198;-72
2022/04/20 03:52:50;;;;;;;4.63;3.07;;;3.70;99.90;;;;;;5073427;28;20605;-72
2022/04/20 03:55:17;;;;;;;6.30;3.73;;;3.70;99.90;;;;;;5061585;28;20258;-72
2022/04/20 03:57:44;;;;;;;5.13;3.20;;;3.70;99.90;;;;;;5062915;28;20264;-72
2022/04/20 04:00:12;;;;;;;4.10;2.83;;;3.70;99.90;;;;;;5054434;28;20195;-72
2022/04/20 04:02:39;;;;;;;5.87;3.27;;;3.60;99.90;;;;;;5071713;28;20222;-72
2022/04/20 04:05:07;;;;;;;4.13;2.93;;;3.60;99.90;;;;;;5071491;28;20244;-72
2022/04/20 04:07:37;;;;;;;4.07;3.13;;;3.60;99.90;;;;;;5070678;28;20195;-72
2022/04/20 04:10:08;;;;;;;6.70;3.00;;;3.80;99.90;;;;;;5070898;28;20260;-72
2022/04/20 04:12:35;;;;;;;5.53;2.90;;;4.00;99.90;;;;;;5071712;28;20207;-72
2022/04/20 04:15:05;;;;;;;8.93;3.70;;;4.10;99.90;;;;;;5071774;28;20199;-73
2022/04/20 04:17:32;;;;;;;7.70;4.40;;;4.10;99.90;;;;;;5071059;28;20206;-72
2022/04/20 04:20:00;;;;;;;8.53;3.80;;;4.10;99.90;;;;;;5071918;28;20212;-72
2022/04/20 04:22:27;;;;;;;5.20;3.17;;;4.20;99.90;;;;;;5068230;28;20210;-72
2022/04/20 04:24:54;;;;;;;8.20;4.17;;;4.20;99.90;;;;;;5071842;28;20260;-72
2022/04/20 04:27:22;;;;;;;4.77;3.47;;;4.10;99.90;;;;;;5066538;28;20252;-72
2022/04/20 04:29:49;;;;;;;5.60;3.77;;;4.10;99.90;;;;;;5071740;28;20252;-72
2022/04/20 04:32:16;;;;;;;4.90;3.43;;;3.90;99.90;;;;;;5071428;28;20477;-72
2022/04/20 04:34:44;;;;;;;4.87;3.50;;;4.00;99.90;;;;;;5058301;28;20208;-72
2022/04/20 04:37:13;;;;;;;4.13;3.20;;;4.50;99.90;;;;;;5070132;28;20259;-72
2022/04/20 04:39:40;;;;;;;5.23;3.30;;;5.20;99.90;;;;;;5070875;28;20579;-72
2022/04/20 04:42:08;;;;;;;4.73;2.93;;;5.00;99.90;;;;;;5071940;28;20258;-72
2022/04/20 04:44:36;;;;;;;5.87;3.10;;;4.60;99.90;;;;;;5061599;28;20198;-72
2022/04/20 04:49:48;;;;;;;5.90;3.40;;;4.80;99.90;;;;;;5067607;28;20205;-72
2022/04/20 04:52:16;;;;;;;4.77;3.50;;;4.50;99.90;;;;;;5072504;28;20198;-72
2022/04/20 04:54:43;;;;;;;5.27;3.43;;;4.30;99.90;;;;;;5071753;28;20202;-72
2022/04/20 04:57:12;;;;;;;8.10;3.37;;;4.30;99.90;;;;;;5070757;28;20202;-72
2022/04/20 04:59:41;;;;;;;6.40;2.97;;;4.50;99.90;;;;;;5072121;28;20198;-72
2022/04/20 05:02:08;;;;;;;5.17;3.30;;;4.50;99.90;;;;;;5071755;28;20246;-72
2022/04/20 05:04:37;;;;;;;4.40;3.00;;;4.60;99.90;;;;;;5070408;28;20237;-72
2022/04/20 05:07:05;;;;;;;8.07;3.33;;;4.80;99.90;;;;;;5069032;28;20198;-73
2022/04/20 05:09:32;;;;;;;4.30;3.23;;;4.90;99.90;;;;;;5071586;28;20293;-72
2022/04/20 05:12:01;;;;;;;6.47;3.37;;;5.00;99.90;;;;;;5072332;28;20207;-72
2022/04/20 05:14:28;;;;;;;6.40;3.77;;;5.30;99.90;;;;;;5069950;28;20716;-74
2022/04/20 05:16:58;;;;;;;6.40;3.20;;;5.40;99.90;;;;;;5071517;28;20198;-74
2022/04/20 05:19:27;;;;;;;6.10;3.33;;;5.70;99.90;;;;;;5070663;28;20198;-74
2022/04/20 05:21:54;;;;;;;4.60;2.90;;;6.20;99.90;;;;;;5061592;28;20280;-75
2022/04/20 05:24:21;;;;;;;3.80;3.17;;;6.30;99.90;;;;;;5071774;28;20195;-74
2022/04/20 05:26:48;;;;;;;4.57;2.90;;;6.30;99.90;;;;;;5070774;28;20726;-75
2022/04/20 05:29:15;;;;;;;4.13;3.20;;;6.60;99.90;;;;;;5071634;28;20190;-75
2022/04/20 05:31:42;;;;;;;4.53;2.80;;;6.70;99.90;;;;;;5068679;28;20289;-74
2022/04/20 05:34:10;;;;;;;5.10;3.13;;;6.80;99.90;;;;;;5062084;28;20198;-74
2022/04/20 05:42:07;;;;;;;5.47;3.10;;;7.30;99.90;;;;;;5070724;28;20222;-74
2022/04/20 05:44:34;;;;;;;5.57;3.30;;;7.50;99.90;;;;;;5071279;28;20194;-75
2022/04/20 05:47:01;;;;;;;11.47;3.10;;;7.40;99.90;;;;;;5071206;28;20199;-75
2022/04/20 05:49:29;;;;;;;5.53;3.27;;;7.10;99.90;;;;;;5069606;28;20206;-75
2022/04/20 05:51:57;;;;;;;7.13;3.13;;;7.10;99.90;;;;;;5071729;28;20224;-75
2022/04/20 05:54:23;;;;;;;7.70;3.37;;;6.90;99.90;;;;;;5066497;28;20645;-75
2022/04/20 05:56:51;;;;;;;5.90;3.87;;;7.00;99.90;;;;;;5064261;28;20240;-75
2022/04/20 05:59:18;;;;;;;4.13;3.00;;;7.20;99.90;;;;;;5070002;28;20198;-74
2022/04/20 06:01:45;;;;;;;4.30;2.87;;;7.30;93.70;;;;;;5065068;28;20226;-75
2022/04/20 06:04:12;;;;;;;7.93;3.07;;;7.30;88.60;;;;;;5069359;28;20716;-74
2022/04/20 06:06:40;;;;;;;4.03;3.07;;;7.30;86.00;;;;;;5060299;28;20293;-75
2022/04/20 06:09:07;;;;;;;5.47;3.00;;;7.50;88.10;;;;;;5062477;28;20203;-75
2022/04/20 06:11:34;;;;;;;5.57;3.40;;;7.50;90.60;;;;;;5063705;28;20577;-75
2022/04/20 06:14:01;;;;;;;7.33;3.17;;;7.50;94.40;;;;;;5068826;28;20338;-75
2022/04/20 06:16:28;;;;;;;8.97;3.40;;;7.40;87.80;;;;;;5062841;28;20203;-75
2022/04/20 06:18:57;;;;;;;9.40;3.63;;;7.40;90.30;;;;;;5065066;28;20647;-75
2022/04/20 06:21:24;;;;;;;12.10;3.60;;;7.50;85.90;;;;;;5063890;28;20198;-74
2022/04/20 06:23:52;;;;;;;8.50;3.80;;;7.50;83.90;;;;;;5062255;28;20629;-75
2022/04/20 06:26:19;;;;;;;14.30;4.60;;;7.60;85.30;;;;;;5065060;28;20275;-75
2022/04/20 06:28:46;;;;;;;10.27;3.67;;;7.70;89.50;;;;;;5066281;28;20249;-75
2022/04/20 06:31:13;;;;;;;10.53;3.73;;;7.70;82.90;;;;;;5068360;28;20260;-74
2022/04/20 06:33:40;;;;;;;9.57;3.67;;;7.80;80.90;;;;;;5062734;28;20210;-75
2022/04/20 06:36:07;;;;;;;6.67;3.50;;;7.90;83.90;;;;;;5063775;28;20199;-75
2022/04/20 06:38:34;;;;;;;8.30;3.60;;;7.90;81.30;;;;;;5069041;28;20365;-75
2022/04/20 06:41:03;;;;;;;10.73;3.70;;;8.30;82.30;;;;;;5068109;28;20294;-75
2022/04/20 06:43:30;;;;;;;15.33;4.73;;;8.50;74.50;;;;;;5069638;28;20720;-75
2022/04/20 06:45:57;;;;;;;7.40;3.37;;;8.30;81.20;;;;;;5056653;28;20584;-75
2022/04/20 06:48:25;;;;;;;10.20;3.63;;;8.20;79.30;;;;;;5066796;28;20202;-74
2022/04/20 06:50:52;;;;;;;9.70;3.87;;;8.20;78.70;;;;;;5060137;28;20567;-75
2022/04/20 06:58:50;;;;;;;10.00;4.23;;;8.60;81.00;;;;;;5050084;28;20670;-75
2022/04/20 07:01:17;;;;;;;11.93;3.97;;;8.40;80.40;;;;;;5064896;28;20297;-75
2022/04/20 07:03:44;;;;;;;7.40;3.70;;;8.50;81.40;;;;;;5057852;28;20269;-75
2022/04/20 07:06:12;;;;;;;9.07;3.87;;;9.00;75.00;;;;;;5066244;28;20203;-74
2022/04/20 07:08:39;;;;;;;9.30;4.47;;;9.00;77.20;;;;;;5067504;28;20724;-74
2022/04/20 07:11:08;;;;;;;8.20;3.57;;;9.20;78.40;;;;;;5069514;28;20645;-74
2022/04/20 07:13:35;;;;;;;9.47;3.80;;;9.10;76.20;;;;;;5057346;28;20195;-74
2022/04/20 07:16:02;;;;;;;5.97;3.87;;;9.70;78.20;;;;;;5048171;28;20653;-75
2022/04/20 07:18:29;;;;;;;4.93;4.00;;;10.60;64.30;;;;;;5068148;28;20210;-75
2022/04/20 07:20:56;;;;;;;7.40;3.90;;;10.10;71.30;;;;;;5063910;28;20676;-75
2022/04/20 07:23:23;;;;;;;6.27;3.90;;;9.80;76.40;;;;;;5060104;28;20252;-75
2022/04/20 07:25:50;;;;;;;10.57;4.73;;;9.50;72.40;;;;;;5062050;28;20244;-74
2022/04/20 07:28:19;;;;;;;7.50;4.40;;;10.20;73.20;;;;;;5064540;28;20198;-74
2022/04/20 07:30:46;;;;;;;7.07;3.93;;;9.70;70.40;;;;;;5062635;28;20612;-74
2022/04/20 07:33:15;;;;;;;8.00;3.87;;;9.80;71.50;;;;;;5059634;28;20206;-74
2022/04/20 07:35:44;;;;;;;6.17;4.53;;;9.50;72.50;;;;;;5063389;28;20210;-74
2022/04/20 07:38:11;;;;;;;10.10;4.23;;;9.50;72.50;;;;;;5061852;28;20278;-74
2022/04/20 07:40:38;;;;;;;8.23;4.07;;;10.30;70.30;;;;;;5062932;28;20203;-74
2022/04/20 07:43:05;;;;;;;6.97;4.30;;;10.20;65.50;;;;;;5066576;28;20835;-74
2022/04/20 07:45:34;;;;;;;7.47;4.13;;;10.30;65.90;;;;;;5070185;28;20195;-74
2022/04/20 07:48:01;;;;;;;7.67;4.23;;;10.50;62.60;;;;;;5063961;28;20730;-74
2022/04/20 07:50:28;;;;;;;6.83;3.90;;;10.50;63.20;;;;;;5066710;28;20620;-74
2022/04/20 07:52:58;;;;;;;6.90;3.97;;;10.90;63.40;;;;;;5070738;28;20710;-74
2022/04/20 07:55:26;;;;;;;8.80;4.53;;;10.40;67.90;;;;;;5071872;28;20291;-74
2022/04/20 07:57:54;;;;;;;6.30;3.87;;;10.30;69.30;;;;;;5072766;28;20260;-74
2022/04/20 08:00:22;;;;;;;8.60;4.23;;;10.40;67.80;;;;;;5073729;28;20198;-74
2022/04/20 08:02:51;;;;;;;8.17;4.57;;;10.30;70.30;;;;;;5073802;28;20230;-74
2022/04/20 08:05:20;;;;;;;10.47;4.70;;;10.30;67.60;;;;;;5072190;28;20208;-74
2022/04/20 08:07:47;;;;;;;8.47;4.70;;;10.60;68.80;;;;;;5071302;28;20190;-74
2022/04/20 08:10:14;;;;;;;8.77;4.70;;;10.90;67.70;;;;;;5072524;28;20210;-74
2022/04/20 08:12:44;;;;;;;7.67;4.63;;;10.70;70.10;;;;;;5072822;28;20218;-74
2022/04/20 08:15:12;;;;;;;8.13;4.50;;;10.90;69.50;;;;;;5073161;28;20195;-74
2022/04/20 08:17:39;;;;;;;8.83;4.37;;;10.60;66.40;;;;;;5072511;28;20240;-74
2022/04/20 08:20:10;;;;;;;13.47;5.17;;;10.40;68.30;;;;;;5073138;28;20636;-74
2022/04/20 08:22:42;;;;;;;11.00;4.57;;;10.60;69.50;;;;;;5071486;28;20214;-74
2022/04/20 08:25:09;;;;;;;6.50;4.70;;;10.50;68.90;;;;;;5072800;28;20210;-74
2022/04/20 08:27:37;;;;;;;7.83;4.83;;;10.60;70.70;;;;;;5072581;28;20203;-74
2022/04/20 08:30:06;;;;;;;8.47;4.50;;;10.80;74.40;;;;;;5071402;28;20732;-74
2022/04/20 08:32:33;;;;;;;10.70;5.17;;;10.90;71.20;;;;;;5071829;28;20206;-74
2022/04/20 08:35:00;;;;;;;6.70;4.57;;;11.00;73.50;;;;;;5073188;28;20609;-74
2022/04/20 08:37:28;;;;;;;6.47;4.40;;;10.90;70.40;;;;;;5073099;28;20730;-74
2022/04/20 08:39:55;;;;;;;6.77;4.50;;;11.50;65.50;;;;;;5072283;28;20246;-73
2022/04/20 08:42:22;;;;;;;8.87;5.17;;;11.30;65.30;;;;;;5072010;28;20226;-74
2022/04/20 08:44:51;;;;;;;8.87;4.50;;;11.20;71.70;;;;;;5073004;28;20209;-73
2022/04/20 08:47:21;;;;;;;6.27;4.47;;;11.20;64.80;;;;;;5073489;28;20328;-74
2022/04/20 08:49:50;;;;;;;7.73;4.40;;;11.30;65.40;;;;;;5072380;28;20249;-74
2022/04/20 08:55:05;;;;;;;8.03;4.50;;;11.40;61.50;;;;;;5064818;28;20272;-74
2022/04/20 08:57:33;;;;;;;4.90;3.83;;;11.70;57.40;;;;;;5057264;28;20231;-74
2022/04/20 09:00:01;;;;;;;6.20;4.43;;;12.00;56.70;;;;;;5071238;28;20546;-74
2022/04/20 09:02:29;;;;;;;5.83;4.10;;;12.00;49.50;;;;;;5053518;28;20550;-74
2022/04/20 09:04:56;;;;;;;6.40;3.63;;;12.30;47.60;;;;;;5063201;28;20209;-74
2022/04/20 09:07:24;;;;;;;6.83;4.23;;;12.10;45.30;;;;;;5065960;28;20217;-74
2022/04/20 09:09:51;;;;;;;8.37;4.20;;;12.60;45.30;;;;;;5061228;28;20213;-74
2022/04/20 09:12:22;;;;;;;5.17;3.93;;;13.10;47.20;;;;;;5065738;28;20805;-74
2022/04/20 09:14:51;;;;;;;8.07;4.50;;;13.10;42.20;;;;;;5068786;28;20549;-74
2022/04/20 09:17:19;;;;;;;6.90;4.27;;;12.70;41.30;;;;;;5070456;28;20205;-74
2022/04/20 09:19:48;;;;;;;11.30;4.73;;;12.80;42.50;;;;;;5072074;28;20199;-74
2022/04/20 09:22:21;;;;;;;7.70;4.40;;;12.90;45.50;;;;;;5069369;28;20638;-74
2022/04/20 09:25:05;;;;;;;7.00;4.27;;;12.90;45.50;;;;;;5072224;28;20256;-74
2022/04/20 09:27:34;;;;;;;9.73;4.40;;;13.10;38.60;;;;;;5063175;28;20210;-74
2022/04/20 09:30:02;;;;;;;6.27;3.90;;;13.50;36.10;;;;;;5050761;28;20700;-74
2022/04/20 09:32:40;;;;;;;6.43;3.60;;;13.10;35.40;;;;;;5053204;28;20233;-74
2022/04/20 09:35:09;;;;;;;5.33;4.10;;;13.50;33.10;;;;;;5052484;28;20203;-74
2022/04/20 09:37:37;;;;;;;7.43;4.20;;;13.50;32.50;;;;;;5058076;28;20206;-74
2022/04/20 09:40:06;;;;;;;5.87;3.77;;;13.40;29.30;;;;;;5063036;28;20217;-74
2022/04/20 09:42:35;;;;;;;6.33;3.80;;;13.70;29.20;;;;;;5061673;28;20657;-74
2022/04/20 09:45:04;;;;;;;6.77;3.80;;;13.40;29.10;;;;;;5052628;28;20199;-74
2022/04/20 09:50:23;;;;;;;7.60;3.90;;;13.80;33.50;;;;;;5071051;28;20201;-74
2022/04/20 09:52:55;;;;;;;5.83;3.97;;;14.00;30.30;;;;;;5071106;28;20641;-74
2022/04/20 09:55:29;;;;;;;6.40;3.67;;;13.70;32.80;;;;;;5052435;28;20253;-74
2022/04/20 09:58:17;;;;;;;5.57;3.60;;;14.00;28.40;;;;;;5049531;28;20218;-74
2022/04/20 10:00:47;;;;;;;4.57;3.60;;;13.70;30.10;;;;;;5053854;28;20211;-74
2022/04/20 10:03:24;;;;;;;5.57;3.90;;;13.40;29.20;;;;;;5050372;28;20508;-74
2022/04/20 10:05:51;;;;;;;5.10;3.47;;;13.20;31.10;;;;;;5058764;28;20651;-74
2022/04/20 10:08:18;;;;;;;6.23;3.77;;;14.00;28.30;;;;;;5069707;28;20198;-74
2022/04/20 10:10:47;;;;;;;4.60;3.63;;;14.10;26.60;;;;;;5071480;28;20707;-74
2022/04/20 10:13:17;;;;;;;4.17;3.70;;;14.00;29.40;;;;;;5070529;28;20194;-74
2022/04/20 10:18:31;;;;;;;6.50;4.50;;;14.10;27.70;;;;;;5070301;28;20271;-74
2022/04/20 10:21:00;;;;;;;5.03;4.33;;;14.60;25.80;;;;;;5064689;28;20286;-74
2022/04/20 10:23:29;;;;;;;5.90;3.80;;;14.40;26.90;;;;;;5055823;28;20271;-74
2022/04/20 10:25:58;;;;;;;5.67;4.53;;;14.20;29.30;;;;;;5068876;28;20573;-74
2022/04/20 10:28:36;;;;;;;5.67;4.17;;;14.00;27.90;;;;;;5068593;28;20272;-74
2022/04/20 10:31:12;;;;;;;6.03;4.20;;;14.20;31.00;;;;;;5059202;28;20290;-74
2022/04/20 10:33:42;;;;;;;5.63;3.93;;;14.80;25.40;;;;;;5049627;28;20207;-74
2022/04/20 10:36:11;;;;;;;7.00;4.43;;;14.70;24.40;;;;;;5050490;28;20324;-74
2022/04/20 10:38:39;;;;;;;6.90;4.40;;;14.40;24.60;;;;;;5051767;28;20210;-74
2022/04/20 10:41:11;;;;;;;5.70;4.07;;;14.40;25.00;;;;;;5064688;28;20203;-74
2022/04/20 10:43:41;;;;;;;8.80;3.93;;;14.40;26.60;;;;;;5049594;28;20587;-74
2022/04/20 10:46:16;;;;;;;6.60;4.20;;;14.50;21.10;;;;;;5061094;28;20256;-74
2022/04/20 10:48:55;;;;;;;7.07;4.10;;;14.60;25.90;;;;;;5070519;28;20675;-74
2022/04/20 10:51:24;;;;;;;5.60;3.90;;;14.30;21.10;;;;;;5070584;28;20217;-74
2022/04/20 10:53:52;;;;;;;7.43;4.50;;;14.90;24.80;;;;;;5070444;28;20637;-74
2022/04/20 10:56:21;;;;;;;8.77;4.70;;;14.70;24.30;;;;;;5068272;28;20194;-74
2022/04/20 10:59:07;;;;;;;8.10;4.67;;;14.10;27.60;;;;;;5070290;28;20710;-74
2022/04/20 11:02:10;;;;;;;8.40;4.80;;;14.70;24.10;;;;;;5051483;28;20194;-74
2022/04/20 11:04:41;;;;;;;6.10;4.27;;;14.40;26.30;;;;;;5057368;28;20266;-74
2022/04/20 11:07:23;;;;;;;7.60;4.77;;;14.50;25.90;;;;;;5059129;28;20205;-74
2022/04/20 11:10:00;;;;;;;7.07;4.20;;;14.70;24.80;;;;;;5069156;28;20260;-74
2022/04/20 11:18:39;;;;;;;7.87;4.77;;;15.00;23.80;;;;;;5067343;28;20281;-74
2022/04/20 11:21:21;;;;;;;7.83;5.00;;;15.00;24.70;;;;;;5069292;28;20378;-74
2022/04/20 11:24:07;;;;;;;5.57;4.33;;;14.90;26.80;;;;;;5043730;28;20623;-74
2022/04/20 11:26:39;;;;;;;6.57;4.10;;;14.60;24.10;;;;;;5063063;28;20257;-74
2022/04/20 11:29:11;;;;;;;5.30;4.43;;;15.60;22.50;;;;;;5070317;28;20199;-74
2022/04/20 11:31:42;;;;;;;5.77;4.47;;;15.20;24.40;;;;;;5072779;28;20194;-74
2022/04/20 11:34:11;;;;;;;6.10;4.70;;;15.30;24.20;;;;;;5072828;28;20260;-74
2022/04/20 11:36:43;;;;;;;5.97;3.90;;;15.30;26.10;;;;;;5073196;28;20222;-74
2022/04/20 11:39:11;;;;;;;7.33;4.90;;;15.30;21.80;;;;;;5072562;28;20198;-74
2022/04/20 11:41:38;;;;;;;8.10;4.20;;;15.30;24.30;;;;;;5058849;28;20210;-74
2022/04/20 11:44:20;;;;;;;6.93;4.00;;;15.30;24.60;;;;;;5057364;28;20227;-74
2022/04/20 11:46:47;;;;;;;6.83;4.53;;;15.20;22.20;;;;;;5053782;28;20235;-74
2022/04/20 11:49:15;;;;;;;7.07;4.57;;;15.20;21.40;;;;;;5054698;28;20195;-74
2022/04/20 11:51:46;;;;;;;4.67;3.87;;;15.40;21.50;;;;;;5065063;28;20199;-74
2022/04/20 11:54:21;;;;;;;5.27;3.80;;;14.70;21.00;;;;;;5060943;28;20203;-72
2022/04/20 11:56:48;;;;;;;8.73;4.00;;;14.80;19.60;;;;;;5067979;28;20202;-71
2022/04/20 11:59:17;;;;;;;5.83;3.70;;;15.00;19.20;;;;;;5065619;28;20249;-73
2022/04/20 12:01:44;;;;;;;4.53;3.80;;;15.20;20.20;;;;;;5067258;28;20612;-72
2022/04/20 12:04:12;;;;;;;6.37;3.90;;;15.20;19.30;;;;;;5066217;28;20560;-72
2022/04/20 12:06:46;;;;;;;7.97;4.40;;;15.40;21.80;;;;;;5062326;28;20292;-73
2022/04/20 12:09:14;;;;;;;5.00;4.03;;;15.30;18.80;;;;;;5065602;28;20640;-73
2022/04/20 12:11:42;;;;;;;6.67;4.10;;;15.10;19.90;;;;;;5069458;28;20206;-73
2022/04/20 12:14:11;;;;;;;5.47;3.60;;;15.10;16.90;;;;;;5058267;28;20711;-73
2022/04/20 12:16:40;;;;;;;6.33;4.23;;;15.30;17.90;;;;;;5064654;28;20297;-73
2022/04/20 12:19:07;;;;;;;5.80;4.17;;;15.30;19.60;;;;;;5068251;28;20212;-73
2022/04/20 12:21:40;;;;;;;5.20;4.17;;;15.40;18.40;;;;;;5065152;28;20225;-73
2022/04/20 12:24:11;;;;;;;3.27;2.97;;;15.80;19.70;;;;;;5066415;28;20219;-73
2022/04/20 12:26:42;;;;;;;10.48;3.63;;;15.80;13.00;;;;;;5067245;28;20559;-73
2022/04/20 12:29:10;;;;;;;4.40;3.40;;;15.80;15.70;;;;;;5065311;28;20222;-73
2022/04/20 12:31:43;;;;;;;4.10;3.50;;;15.80;14.80;;;;;;5064565;28;20250;-73
2022/04/20 12:34:11;;;;;;;6.27;3.57;;;15.40;13.40;;;;;;5045688;28;20202;-73
2022/04/20 12:36:59;;;;;;;4.83;3.53;;;16.00;12.30;;;;;;5049491;28;20249;-73
2022/04/20 12:39:29;;;;;;;3.77;3.10;;;15.80;14.50;;;;;;5041666;28;20202;-73
2022/04/20 12:41:57;;;;;;;5.30;3.03;;;16.00;13.50;;;;;;5048727;28;20234;-73
2022/04/20 12:44:39;;;;;;;3.83;3.37;;;16.50;15.30;;;;;;5046934;28;20296;-73
2022/04/20 12:47:38;;;;;;;5.32;3.80;;;15.60;13.70;;;;;;5041338;28;20239;-73
2022/04/20 12:50:19;;;;;;;4.27;3.73;;;15.40;15.00;;;;;;5040782;28;20641;-73
2022/04/20 12:52:55;;;;;;;3.97;3.30;;;15.40;14.90;;;;;;5045156;28;20266;-73
2022/04/20 12:55:24;;;;;;;3.33;2.63;;;15.20;13.80;;;;;;5045366;28;20624;-73
2022/04/20 13:03:34;;;;;;;5.93;2.87;;;16.10;9.60;;;;;;5042756;28;20349;-72
2022/04/20 13:06:01;;;;;;;4.32;2.65;;;16.10;4.80;;;;;;5046520;28;20681;-73
2022/04/20 13:08:28;;;;;;;3.47;2.43;;;16.20;3.00;;;;;;5047361;28;20702;-73
2022/04/20 13:10:58;;;;;;;6.32;2.30;;;16.30;1.90;;;;;;5041913;28;20207;-72
2022/04/20 13:13:26;;;;;;;4.53;2.43;;;16.70;4.00;;;;;;5048023;28;20203;-73
2022/04/20 13:15:53;;;;;;;4.07;2.37;;;16.30;1.00;;;;;;5046210;28;20286;-73
2022/04/20 13:18:20;;;;;;;3.53;2.50;;;16.30;1.00;;;;;;5047225;28;20253;-73
2022/04/20 13:20:47;;;;;;;3.58;2.60;;;16.20;4.90;;;;;;5045726;28;20593;-73
2022/04/20 13:23:15;;;;;;;4.53;2.60;;;16.00;7.30;;;;;;5045352;28;20252;-73
2022/04/20 13:28:28;;;;;;;2.33;2.03;;;15.70;5.60;;;;;;5046462;28;20213;-73
2022/04/20 13:30:56;;;;;;;2.60;2.30;;;15.70;1.50;;;;;;5045515;28;20211;-73
2022/04/20 13:33:23;;;;;;;2.37;2.17;;;15.90;1.00;;;;;;5060303;28;20255;-73
2022/04/20 13:35:53;;;;;;;3.30;2.40;;;16.30;1.00;;;;;;5059395;28;20264;-73
2022/04/20 13:38:20;;;;;;;3.10;2.20;;;16.70;1.00;;;;;;5066420;28;20635;-73
2022/04/20 13:40:48;;;;;;;2.63;2.37;;;16.40;1.60;;;;;;5065694;28;20206;-73